createdAt,value
2023-08-23T00:01:23.730Z,1.70
2023-08-23T00:03:53.025Z,1.67
2023-08-23T00:06:20.230Z,2.10
2023-08-23T00:08:47.192Z,2.30
2023-08-23T00:11:14.056Z,2.63
2023-08-23T00:13:40.997Z,1.95
2023-08-23T00:16:07.865Z,2.20
2023-08-23T00:18:34.822Z,1.90
2023-08-23T00:21:01.837Z,1.60
2023-08-23T00:23:28.705Z,1.90
2023-08-23T00:25:55.589Z,1.63
2023-08-23T00:28:22.490Z,2.20
2023-08-23T00:30:53.581Z,2.33
2023-08-23T00:33:21.123Z,1.85
2023-08-23T00:35:48.672Z,1.73
2023-08-23T00:38:15.605Z,2.20
2023-08-23T00:40:42.490Z,2.15
2023-08-23T00:43:09.414Z,2.13
2023-08-23T00:45:37.756Z,2.13
2023-08-23T00:48:06.320Z,2.20
2023-08-23T00:50:34.689Z,2.10
2023-08-23T00:53:03.279Z,2.47
2023-08-23T00:55:30.710Z,2.50
2023-08-23T00:57:58.587Z,2.03
2023-08-23T01:00:27.738Z,2.17
2023-08-23T01:02:54.794Z,2.10
2023-08-23T01:05:37.045Z,2.13
2023-08-23T01:08:09.478Z,2.72
2023-08-23T01:10:56.268Z,2.25
2023-08-23T01:13:27.288Z,2.50
2023-08-23T01:15:57.416Z,2.10
2023-08-23T01:18:25.898Z,2.78
2023-08-23T01:20:54.396Z,2.63
2023-08-23T01:23:23.013Z,2.08
2023-08-23T01:25:51.899Z,2.78
2023-08-23T01:28:20.087Z,3.13
2023-08-23T01:30:48.513Z,3.35
2023-08-23T01:33:31.912Z,2.58
2023-08-23T01:36:39.993Z,2.00
2023-08-23T01:39:07.294Z,2.30
2023-08-23T01:41:35.032Z,2.67
2023-08-23T01:44:02.100Z,2.40
2023-08-23T01:46:29.359Z,3.25
2023-08-23T01:48:56.271Z,2.70
2023-08-23T01:51:23.199Z,2.70
2023-08-23T01:53:50.222Z,3.08
2023-08-23T01:56:17.105Z,2.65
2023-08-23T01:58:44.054Z,2.50
2023-08-23T02:01:10.954Z,2.63
2023-08-23T02:03:37.856Z,1.95
2023-08-23T02:06:04.852Z,2.67
2023-08-23T02:08:31.726Z,2.60
2023-08-23T02:10:58.627Z,2.17
2023-08-23T02:13:25.476Z,2.58
2023-08-23T02:15:52.893Z,2.65
2023-08-23T02:18:20.901Z,2.30
2023-08-23T02:20:55.108Z,2.67
2023-08-23T02:23:21.953Z,2.50
2023-08-23T02:25:48.860Z,2.90
2023-08-23T02:28:15.905Z,2.70
2023-08-23T02:30:42.819Z,2.38
2023-08-23T02:33:09.671Z,2.67
2023-08-23T02:35:45.525Z,2.25
2023-08-23T02:40:44.036Z,2.33
2023-08-23T02:43:10.972Z,2.50
2023-08-23T02:45:41.284Z,2.72
2023-08-23T02:48:10.440Z,2.47
2023-08-23T02:50:38.048Z,2.38
2023-08-23T02:53:05.293Z,2.50
2023-08-23T02:55:36.775Z,2.65
2023-08-23T02:58:04.274Z,2.63
2023-08-23T03:00:31.494Z,2.40
2023-08-23T03:02:58.443Z,3.33
2023-08-23T03:05:25.694Z,3.30
2023-08-23T03:07:52.594Z,2.95
2023-08-23T03:10:19.562Z,3.13
2023-08-23T03:12:46.448Z,2.67
2023-08-23T03:15:13.382Z,2.72
2023-08-23T03:17:40.297Z,3.75
2023-08-23T03:20:07.688Z,3.15
2023-08-23T03:22:34.659Z,2.28
2023-08-23T03:25:01.556Z,2.70
2023-08-23T03:27:28.509Z,2.53
2023-08-23T03:29:55.424Z,2.88
2023-08-23T03:32:22.289Z,3.28
2023-08-23T03:34:49.181Z,2.35
2023-08-23T03:37:16.130Z,3.05
2023-08-23T03:39:43.048Z,3.03
2023-08-23T03:42:09.907Z,2.60
2023-08-23T03:44:36.896Z,3.10
2023-08-23T03:47:03.817Z,3.03
2023-08-23T03:49:30.724Z,2.70
2023-08-23T03:51:57.626Z,2.70
2023-08-23T03:54:24.552Z,2.67
2023-08-23T03:56:51.441Z,2.63
2023-08-23T03:59:18.293Z,2.90
2023-08-23T04:01:45.320Z,3.53
2023-08-23T04:04:12.346Z,3.10
2023-08-23T04:06:39.563Z,3.25
2023-08-23T04:09:06.566Z,3.92
2023-08-23T04:11:33.470Z,2.92
2023-08-23T04:14:00.368Z,3.25
2023-08-23T04:16:27.295Z,3.10
2023-08-23T04:18:56.025Z,3.00
2023-08-23T04:21:22.979Z,3.10
2023-08-23T04:23:50.823Z,2.90
2023-08-23T04:26:17.743Z,2.90
2023-08-23T04:28:44.686Z,3.25
2023-08-23T04:31:11.572Z,2.80
2023-08-23T04:33:38.526Z,3.20
2023-08-23T04:36:05.844Z,3.17
2023-08-23T04:38:32.773Z,2.83
2023-08-23T04:41:03.818Z,3.45
2023-08-23T04:43:30.731Z,3.05
2023-08-23T04:45:58.671Z,3.25
2023-08-23T04:48:27.930Z,3.30
2023-08-23T04:50:57.311Z,3.25
2023-08-23T04:53:25.368Z,3.22
2023-08-23T04:55:57.201Z,3.13
2023-08-23T04:58:31.352Z,3.30
2023-08-23T05:01:06.810Z,3.03
2023-08-23T05:03:35.503Z,3.25
2023-08-23T05:06:03.283Z,3.17
2023-08-23T05:08:31.617Z,3.22
2023-08-23T05:10:58.525Z,3.25
2023-08-23T05:13:25.471Z,3.30
2023-08-23T05:15:57.059Z,3.50
2023-08-23T05:18:24.727Z,3.20
2023-08-23T05:20:55.880Z,3.30
2023-08-23T05:23:23.970Z,3.85
2023-08-23T05:25:52.464Z,3.17
2023-08-23T05:28:23.323Z,2.97
2023-08-23T05:30:53.102Z,3.15
2023-08-23T05:33:20.037Z,3.10
2023-08-23T05:35:47.215Z,3.67
2023-08-23T05:38:14.458Z,3.25
2023-08-23T05:40:41.507Z,3.38
2023-08-23T05:43:08.951Z,3.63
2023-08-23T05:45:35.900Z,3.47
2023-08-23T05:48:03.035Z,3.05
2023-08-23T05:50:30.130Z,3.17
2023-08-23T05:52:57.061Z,3.50
2023-08-23T05:55:23.944Z,3.60
2023-08-23T05:57:50.914Z,3.38
2023-08-23T06:00:17.980Z,3.15
2023-08-23T06:02:45.086Z,3.35
2023-08-23T06:05:12.352Z,3.15
2023-08-23T06:07:39.651Z,3.72
2023-08-23T06:10:06.985Z,3.60
2023-08-23T06:12:33.870Z,3.00
2023-08-23T06:15:00.751Z,3.08
2023-08-23T06:17:27.893Z,3.75
2023-08-23T06:19:54.791Z,3.38
2023-08-23T06:22:21.740Z,3.33
2023-08-23T06:24:48.698Z,3.15
2023-08-23T06:27:15.684Z,3.05
2023-08-23T06:29:42.644Z,3.50
2023-08-23T06:32:09.533Z,3.10
2023-08-23T06:34:36.947Z,3.22
2023-08-23T06:37:03.871Z,2.80
2023-08-23T06:39:34.171Z,3.28
2023-08-23T06:42:02.470Z,2.78
2023-08-23T06:44:31.086Z,3.10
2023-08-23T06:46:58.133Z,3.63
2023-08-23T06:49:25.018Z,3.05
2023-08-23T06:51:51.972Z,3.15
2023-08-23T06:54:18.876Z,3.10
2023-08-23T06:56:47.879Z,3.17
2023-08-23T06:59:14.793Z,3.17
2023-08-23T07:01:41.729Z,2.38
2023-08-23T07:04:08.597Z,2.55
2023-08-23T07:06:35.522Z,2.85
2023-08-23T07:09:02.433Z,2.80
2023-08-23T07:11:29.291Z,2.70
2023-08-23T07:13:56.204Z,2.72
2023-08-23T07:16:23.065Z,2.97
2023-08-23T07:18:50.006Z,3.10
2023-08-23T07:21:16.973Z,3.17
2023-08-23T07:23:44.603Z,3.85
2023-08-23T07:26:11.502Z,2.80
2023-08-23T07:28:38.493Z,2.88
2023-08-23T07:31:05.526Z,2.88
2023-08-23T07:33:32.530Z,2.88
2023-08-23T07:36:03.680Z,2.80
2023-08-23T07:38:32.617Z,2.60
2023-08-23T07:41:01.854Z,3.55
2023-08-23T07:43:28.881Z,3.70
2023-08-23T07:46:00.827Z,2.33
2023-08-23T07:48:28.851Z,2.70
2023-08-23T07:50:57.235Z,2.65
2023-08-23T07:53:25.134Z,2.60
2023-08-23T07:55:52.084Z,3.03
2023-08-23T07:58:19.079Z,2.85
2023-08-23T08:00:45.993Z,2.97
2023-08-23T08:03:13.113Z,3.22
2023-08-23T08:05:40.126Z,2.22
2023-08-23T08:08:09.656Z,2.72
2023-08-23T08:10:37.430Z,2.63
2023-08-23T08:13:04.906Z,2.90
2023-08-23T08:15:35.387Z,2.80
2023-08-23T08:18:03.771Z,2.67
2023-08-23T08:20:30.814Z,2.83
2023-08-23T08:22:57.919Z,2.85
2023-08-23T08:25:24.820Z,3.28
2023-08-23T08:27:52.531Z,2.53
2023-08-23T08:30:19.973Z,2.60
2023-08-23T08:32:47.348Z,2.55
2023-08-23T08:35:14.363Z,2.33
2023-08-23T08:37:41.249Z,3.17
2023-08-23T08:40:09.133Z,2.60
2023-08-23T08:42:36.270Z,2.42
2023-08-23T08:45:03.760Z,2.78
2023-08-23T08:47:30.763Z,2.47
2023-08-23T08:49:57.799Z,2.95
2023-08-23T08:52:28.221Z,2.65
2023-08-23T08:54:56.589Z,3.08
2023-08-23T08:57:27.184Z,2.63
2023-08-23T08:59:55.381Z,2.67
2023-08-23T09:02:25.068Z,2.83
2023-08-23T09:04:52.583Z,3.35
2023-08-23T09:07:19.466Z,2.58
2023-08-23T09:09:46.370Z,2.78
2023-08-23T09:12:13.277Z,2.90
2023-08-23T09:14:43.061Z,2.28
2023-08-23T09:17:11.750Z,2.40
2023-08-23T09:19:41.721Z,2.58
2023-08-23T09:22:09.211Z,2.80
2023-08-23T09:24:36.121Z,2.65
2023-08-23T09:27:03.112Z,2.58
2023-08-23T09:29:30.077Z,2.47
2023-08-23T09:32:00.651Z,2.50
2023-08-23T09:34:27.639Z,2.47
2023-08-23T09:37:05.162Z,2.95
2023-08-23T09:39:32.078Z,2.58
2023-08-23T09:42:04.550Z,2.40
2023-08-23T09:44:34.633Z,2.72
2023-08-23T09:47:02.066Z,2.85
2023-08-23T09:49:40.215Z,2.00
2023-08-23T09:52:08.099Z,2.08
2023-08-23T09:55:04.108Z,2.67
2023-08-23T09:57:40.376Z,2.75
2023-08-23T10:00:08.445Z,2.80
2023-08-23T10:02:35.444Z,2.30
2023-08-23T10:05:06.184Z,2.40
2023-08-23T10:07:35.384Z,2.10
2023-08-23T10:10:04.772Z,2.50
2023-08-23T10:12:32.628Z,2.20
2023-08-23T10:15:01.157Z,2.70
2023-08-23T10:17:28.802Z,2.15
2023-08-23T10:19:55.801Z,2.80
2023-08-23T10:22:24.258Z,2.15
2023-08-23T10:24:52.062Z,2.58
2023-08-23T10:27:18.938Z,2.00
2023-08-23T10:29:52.497Z,1.88
2023-08-23T10:32:19.640Z,2.20
2023-08-23T10:34:46.847Z,2.47
2023-08-23T10:37:23.159Z,2.42
2023-08-23T10:39:51.806Z,2.33
2023-08-23T10:42:20.106Z,2.78
2023-08-23T10:45:01.468Z,2.10
2023-08-23T10:47:28.678Z,2.38
2023-08-23T10:49:56.359Z,1.77
2023-08-23T10:52:23.241Z,2.60
2023-08-23T10:54:50.716Z,1.80
2023-08-23T10:57:18.828Z,2.10
2023-08-23T10:59:46.073Z,1.98
2023-08-23T11:02:13.469Z,1.60
2023-08-23T11:04:40.400Z,1.88
2023-08-23T11:07:07.425Z,1.73
2023-08-23T11:09:35.402Z,2.17
2023-08-23T11:12:05.138Z,1.98
2023-08-23T11:14:32.089Z,2.45
2023-08-23T11:16:59.254Z,1.83
2023-08-23T11:19:26.264Z,2.33
2023-08-23T11:21:53.303Z,2.15
2023-08-23T11:24:20.196Z,2.40
2023-08-23T11:26:47.119Z,1.88
2023-08-23T11:29:14.200Z,1.63
2023-08-23T11:31:41.139Z,1.73
2023-08-23T11:34:09.813Z,1.63
2023-08-23T11:36:38.523Z,1.70
2023-08-23T11:39:07.379Z,1.70
2023-08-23T11:41:35.570Z,1.90
2023-08-23T11:44:09.128Z,2.15
2023-08-23T11:46:39.957Z,1.70
2023-08-23T11:49:08.363Z,1.85
2023-08-23T11:51:47.534Z,1.42
2023-08-23T11:54:15.256Z,1.88
2023-08-23T11:56:45.675Z,1.55
2023-08-23T11:59:14.011Z,1.95
2023-08-23T12:01:46.186Z,1.80
2023-08-23T12:04:13.781Z,1.27
2023-08-23T12:06:43.416Z,1.88
2023-08-23T12:09:12.479Z,1.48
2023-08-23T12:11:39.990Z,1.58
2023-08-23T12:14:08.241Z,1.20
2023-08-23T12:16:36.458Z,1.00
2023-08-23T12:19:11.783Z,1.20
2023-08-23T12:21:49.376Z,0.93
2023-08-23T12:24:16.466Z,1.08
2023-08-23T12:26:43.512Z,0.82
2023-08-23T12:29:10.510Z,0.70
2023-08-23T12:31:37.784Z,1.00
2023-08-23T12:34:04.733Z,1.10
2023-08-23T12:36:31.572Z,1.15
2023-08-23T12:38:59.664Z,1.05
2023-08-23T12:41:28.688Z,1.30
2023-08-23T12:43:55.862Z,0.82
2023-08-23T12:46:22.846Z,1.17
2023-08-23T12:48:49.797Z,0.63
2023-08-23T12:51:16.649Z,0.77
2023-08-23T12:53:43.588Z,0.80
2023-08-23T12:56:10.513Z,1.38
2023-08-23T12:58:37.445Z,1.20
2023-08-23T13:01:04.945Z,1.10
2023-08-23T13:03:31.905Z,1.20
2023-08-23T13:05:58.931Z,0.70
2023-08-23T13:08:25.845Z,1.10
2023-08-23T13:10:52.863Z,1.08
2023-08-23T13:13:19.805Z,1.33
2023-08-23T13:15:46.766Z,1.15
2023-08-23T13:18:15.652Z,1.33
2023-08-23T13:20:42.520Z,1.20
2023-08-23T13:23:09.388Z,1.00
2023-08-23T13:25:36.376Z,0.80
2023-08-23T13:28:04.951Z,0.70
2023-08-23T13:30:32.061Z,0.77
2023-08-23T13:32:59.012Z,0.90
2023-08-23T13:35:25.978Z,0.90
2023-08-23T13:37:52.978Z,0.80
2023-08-23T13:40:20.006Z,0.75
2023-08-23T13:42:49.279Z,1.33
2023-08-23T13:45:18.050Z,0.70
2023-08-23T13:47:44.930Z,0.70
2023-08-23T13:50:11.890Z,0.80
2023-08-23T13:52:38.901Z,0.73
2023-08-23T13:55:06.879Z,0.65
2023-08-23T13:57:33.746Z,0.80
2023-08-23T14:00:00.629Z,0.77
2023-08-23T14:02:27.582Z,0.60
2023-08-23T14:04:54.643Z,0.52
2023-08-23T14:07:21.769Z,1.02
2023-08-23T14:09:48.645Z,0.70
2023-08-23T14:12:15.537Z,0.98
2023-08-23T14:14:42.483Z,0.75
2023-08-23T14:17:09.568Z,0.90
2023-08-23T14:19:56.801Z,0.70
2023-08-23T14:22:23.676Z,0.80
2023-08-23T14:24:50.530Z,0.70
2023-08-23T14:27:17.430Z,0.80
2023-08-23T14:29:44.374Z,0.57
2023-08-23T14:32:12.683Z,0.80
2023-08-23T14:34:39.612Z,0.70
2023-08-23T14:37:06.556Z,0.90
2023-08-23T14:39:33.545Z,0.65
2023-08-23T14:42:00.417Z,0.73
2023-08-23T14:44:30.305Z,0.60
2023-08-23T14:46:59.322Z,0.70
2023-08-23T14:49:26.304Z,0.70
2023-08-23T14:51:53.130Z,0.70
2023-08-23T14:54:20.056Z,0.60
2023-08-23T14:56:46.887Z,0.52
2023-08-23T14:59:14.007Z,0.88
2023-08-23T15:01:40.874Z,0.70
2023-08-23T15:04:07.868Z,0.75
2023-08-23T15:06:34.813Z,0.60
2023-08-23T15:09:01.652Z,0.82
2023-08-23T15:11:28.555Z,0.60
2023-08-23T15:13:55.433Z,0.63
2023-08-23T15:16:22.419Z,0.80
2023-08-23T15:18:49.310Z,0.60
2023-08-23T15:21:16.198Z,0.70
2023-08-23T15:23:43.017Z,0.65
2023-08-23T15:26:09.847Z,0.80
2023-08-23T15:28:46.987Z,0.70
2023-08-23T15:31:22.731Z,0.95
2023-08-23T15:33:49.650Z,1.05
2023-08-23T15:36:16.583Z,0.73
2023-08-23T15:38:43.713Z,0.60
2023-08-23T15:41:10.572Z,1.10
2023-08-23T15:43:37.608Z,0.70
2023-08-23T15:46:04.957Z,0.73
2023-08-23T15:48:31.953Z,0.60
2023-08-23T15:50:58.875Z,1.05
2023-08-23T15:53:25.755Z,0.60
2023-08-23T15:56:03.234Z,0.60
2023-08-23T15:58:30.801Z,0.60
2023-08-23T16:00:57.864Z,0.60
2023-08-23T16:03:25.060Z,0.68
2023-08-23T16:06:00.596Z,0.80
2023-08-23T16:08:28.116Z,0.60
2023-08-23T16:10:58.507Z,1.20
2023-08-23T16:13:25.496Z,1.30
2023-08-23T16:15:52.930Z,1.50
2023-08-23T16:18:20.445Z,1.08
2023-08-23T16:20:48.449Z,1.30
2023-08-23T16:23:15.325Z,1.23
2023-08-23T16:25:42.179Z,1.55
2023-08-23T16:28:11.812Z,1.30
2023-08-23T16:30:39.287Z,1.52
2023-08-23T16:33:07.520Z,1.50
2023-08-23T16:35:38.852Z,1.58
2023-08-23T16:38:13.188Z,1.48
2023-08-23T16:40:40.270Z,1.40
2023-08-23T16:43:07.603Z,1.50
2023-08-23T16:45:34.798Z,1.30
2023-08-23T16:48:02.440Z,1.38
2023-08-23T16:50:29.500Z,1.25
2023-08-23T16:52:56.669Z,1.75
2023-08-23T16:55:23.511Z,1.70
2023-08-23T16:57:50.405Z,1.25
2023-08-23T17:00:17.581Z,1.35
2023-08-23T17:02:46.866Z,1.20
2023-08-23T17:05:14.891Z,1.35
2023-08-23T17:07:41.902Z,1.60
2023-08-23T17:10:09.121Z,1.40
2023-08-23T17:12:36.322Z,1.58
2023-08-23T17:15:03.488Z,1.40
2023-08-23T17:17:30.837Z,1.63
2023-08-23T17:19:57.705Z,1.30
2023-08-23T17:22:24.580Z,1.90
2023-08-23T17:24:51.463Z,1.48
2023-08-23T17:27:18.385Z,1.63
2023-08-23T17:29:45.267Z,1.50
2023-08-23T17:32:12.086Z,1.27
2023-08-23T17:34:39.421Z,1.65
2023-08-23T17:37:06.486Z,1.67
2023-08-23T17:39:33.361Z,1.88
2023-08-23T17:42:00.522Z,1.70
2023-08-23T17:44:27.396Z,1.85
2023-08-23T17:46:54.352Z,1.85
2023-08-23T17:49:21.245Z,2.35
2023-08-23T17:51:48.125Z,2.13
2023-08-23T17:54:15.132Z,1.80
2023-08-23T17:56:43.633Z,2.25
2023-08-23T17:59:10.522Z,2.28
2023-08-23T18:01:37.489Z,2.08
2023-08-23T18:04:04.521Z,2.20
2023-08-23T18:06:32.199Z,1.92
2023-08-23T18:08:59.103Z,1.70
2023-08-23T18:11:26.216Z,2.08
2023-08-23T18:13:53.150Z,1.75
2023-08-23T18:16:20.153Z,2.15
2023-08-23T18:18:47.029Z,2.00
2023-08-23T18:21:14.292Z,2.20
2023-08-23T18:23:41.207Z,2.35
2023-08-23T18:26:08.082Z,1.85
2023-08-23T18:28:35.031Z,1.98
2023-08-23T18:31:03.087Z,2.17
2023-08-23T18:33:31.314Z,2.53
2023-08-23T18:36:00.100Z,2.35
2023-08-23T18:38:26.983Z,2.47
2023-08-23T18:40:59.424Z,2.00
2023-08-23T18:43:26.343Z,1.92
2023-08-23T18:45:53.225Z,2.03
2023-08-23T18:48:20.086Z,2.17
2023-08-23T18:50:47.156Z,2.40
2023-08-23T18:53:14.030Z,1.98
2023-08-23T18:55:40.890Z,2.35
2023-08-23T18:58:07.723Z,2.88
2023-08-23T19:00:34.636Z,2.50
2023-08-23T19:03:01.598Z,2.60
2023-08-23T19:05:28.513Z,2.58
2023-08-23T19:07:55.350Z,2.30
2023-08-23T19:10:22.293Z,2.17
2023-08-23T19:12:49.408Z,1.90
2023-08-23T19:15:16.607Z,2.53
2023-08-23T19:17:46.273Z,2.78
2023-08-23T19:20:13.564Z,2.38
2023-08-23T19:22:40.439Z,2.00
2023-08-23T19:25:07.592Z,2.40
2023-08-23T19:27:34.496Z,2.33
2023-08-23T19:30:01.328Z,2.00
2023-08-23T19:32:32.070Z,2.95
2023-08-23T19:34:59.020Z,2.05
2023-08-23T19:37:25.961Z,1.98
2023-08-23T19:39:52.850Z,2.17
2023-08-23T19:42:21.600Z,2.35
2023-08-23T19:44:48.535Z,2.15
2023-08-23T19:47:15.448Z,2.20
2023-08-23T19:49:42.344Z,2.47
2023-08-23T19:52:09.199Z,2.45
2023-08-23T19:54:39.217Z,2.60
2023-08-23T19:57:06.770Z,2.42
2023-08-23T19:59:33.619Z,2.70
2023-08-23T20:02:00.484Z,2.33
2023-08-23T20:04:27.504Z,2.50
2023-08-23T20:06:54.374Z,2.40
2023-08-23T20:09:21.256Z,2.35
2023-08-23T20:11:51.961Z,2.55
2023-08-23T20:14:19.197Z,2.15
2023-08-23T20:16:46.082Z,2.90
2023-08-23T20:19:12.942Z,2.10
2023-08-23T20:21:39.794Z,2.80
2023-08-23T20:24:06.819Z,2.53
2023-08-23T20:26:34.322Z,2.65
2023-08-23T20:29:01.180Z,2.60
2023-08-23T20:31:28.122Z,2.65
2023-08-23T20:33:55.304Z,2.55
2023-08-23T20:36:25.355Z,2.40
2023-08-23T20:38:52.282Z,2.67
2023-08-23T20:41:19.253Z,2.60
2023-08-23T20:43:46.139Z,2.63
2023-08-23T20:46:13.024Z,2.53
2023-08-23T20:48:39.879Z,2.88
2023-08-23T20:51:08.471Z,2.65
2023-08-23T20:53:35.704Z,2.20
2023-08-23T20:56:02.827Z,2.22
2023-08-23T20:58:29.733Z,2.80
2023-08-23T21:00:58.875Z,2.50
2023-08-23T21:03:26.131Z,2.47
2023-08-23T21:05:53.045Z,2.70
2023-08-23T21:08:20.009Z,3.05
2023-08-23T21:10:47.465Z,2.28
2023-08-23T21:13:14.746Z,2.20
2023-08-23T21:15:48.663Z,2.53
2023-08-23T21:18:16.621Z,2.22
2023-08-23T21:20:43.749Z,2.30
2023-08-23T21:23:13.476Z,2.33
2023-08-23T21:25:40.413Z,2.42
2023-08-23T21:28:08.329Z,2.60
2023-08-23T21:30:35.258Z,2.28
2023-08-23T21:33:02.443Z,2.38
2023-08-23T21:35:30.184Z,2.10
2023-08-23T21:37:57.695Z,2.33
2023-08-23T21:40:24.547Z,2.42
2023-08-23T21:42:51.474Z,2.20
2023-08-23T21:45:18.591Z,2.15
2023-08-23T21:47:46.294Z,2.20
2023-08-23T21:50:13.335Z,2.17
2023-08-23T21:52:40.552Z,2.33
2023-08-23T21:55:07.866Z,2.28
2023-08-23T21:57:36.953Z,2.08
2023-08-23T22:00:05.900Z,2.03
2023-08-23T22:02:32.947Z,2.10
2023-08-23T22:04:59.824Z,2.10
2023-08-23T22:07:26.697Z,1.80
2023-08-23T22:09:53.587Z,1.70
2023-08-23T22:12:21.391Z,1.52
2023-08-23T22:14:48.375Z,1.75
2023-08-23T22:17:15.214Z,1.80
2023-08-23T22:19:42.106Z,1.90
2023-08-23T22:22:08.926Z,1.70
2023-08-23T22:24:35.887Z,1.85
2023-08-23T22:27:02.768Z,1.65
2023-08-23T22:29:29.637Z,2.22
2023-08-23T22:31:56.526Z,1.60
2023-08-23T22:34:23.400Z,1.77
2023-08-23T22:36:50.287Z,1.60
2023-08-23T22:39:17.173Z,1.70
2023-08-23T22:41:44.105Z,1.90
2023-08-23T22:44:10.961Z,1.60
2023-08-23T22:46:37.821Z,1.63
2023-08-23T22:49:04.702Z,1.88
2023-08-23T22:51:31.599Z,2.42
2023-08-23T22:53:58.500Z,2.08
2023-08-23T22:56:25.372Z,1.90
2023-08-23T22:58:52.323Z,1.60
2023-08-23T23:01:19.422Z,1.70
2023-08-23T23:03:46.456Z,1.70
2023-08-23T23:06:13.372Z,1.40
2023-08-23T23:08:40.464Z,1.65
2023-08-23T23:11:08.132Z,1.58
2023-08-23T23:13:35.084Z,2.20
2023-08-23T23:16:06.507Z,1.45
2023-08-23T23:18:36.698Z,1.48
2023-08-23T23:21:05.134Z,1.52
2023-08-23T23:23:32.155Z,1.67
2023-08-23T23:25:59.095Z,1.60
2023-08-23T23:28:25.951Z,1.30
2023-08-23T23:30:52.801Z,1.25
2023-08-23T23:33:19.686Z,1.20
2023-08-23T23:35:47.846Z,1.20
2023-08-23T23:38:14.744Z,1.02
2023-08-23T23:40:41.859Z,1.70
2023-08-23T23:43:08.823Z,1.50
2023-08-23T23:45:37.840Z,1.45
2023-08-23T23:48:05.881Z,1.40
2023-08-23T23:50:33.984Z,1.52
2023-08-23T23:53:01.582Z,1.25
2023-08-23T23:55:29.496Z,1.60
2023-08-23T23:57:56.414Z,1.80
